Valentine, Nebraska
Current Conditions -  °F | °C
As of 3:52 AM on Sunday 21 Dec 2014 (Local Time) from KVTN Reporting Station
Scattered Clouds Scattered Clouds  
Wind Chill: 19°   Ceiling: Unl
Heat Index: 26°   Visibility: 10mi
Dew Point: 23°   Wind: 6mph
Humidity: 88%   Direction: 230°SW
Pressure: 29.76"   Gusts: NA
Location:  42.87°N, 100.55°W
Report Text: KVTN 210952Z AUTO 23005KT 10SM SCT100 M03/M05 A2976 RMK AO2 SLP099 T10331050
Loading
Personal Weather Stations






























Interactive Weather Map New forecast layout! Learn more

10-Day Weather Forecast

Advertisements
Track Severe Weather on mobile